Time;durP1;ratioP1;P1;durP2;ratioP2;P2;SDS_P1;SDS_P2;PMS_P1;PMS_P2;Temp;Humidity;BMP_temperature;BMP_pressure;BME280_temperature;BME280_humidity;BME280_pressure;Samples;Min_cycle;Max_cycle;Signal;HPM_P1;HPM_P2
2023/10/24 00:00:01;;;;;;;1.83;1.10;;;;;;;;;;5051819;28;20195;-76
2023/10/24 00:02:26;;;;;;;2.93;2.17;;;;;;;;;;5037329;28;20199;-77
2023/10/24 00:04:51;;;;;;;2.80;1.83;;;;;;;;;;5049019;28;20170;-77
2023/10/24 00:07:16;;;;;;;2.97;2.67;;;;;;;;;;5050094;28;20193;-77
2023/10/24 00:09:42;;;;;;;2.83;2.20;;;;;;;;;;5061540;28;20172;-77
2023/10/24 00:12:07;;;;;;;7.83;3.07;;;;;;;;;;5033019;28;20175;-76
2023/10/24 00:14:32;;;;;;;2.73;2.40;;;;;;;;;;5030847;28;20241;-76
2023/10/24 00:16:57;;;;;;;4.80;2.00;;;;;;;;;;5034480;28;20191;-76
2023/10/24 00:19:23;;;;;;;2.40;1.90;;;;;;;;;;5032030;28;20196;-76
2023/10/24 00:21:48;;;;;;;2.33;1.87;;;;;;;;;;5044076;28;20206;-76
2023/10/24 00:24:14;;;;;;;2.93;2.00;;;;;;;;;;5039401;28;20238;-76
2023/10/24 00:26:39;;;;;;;3.07;2.17;;;;;;;;;;5059053;28;20185;-76
2023/10/24 00:29:04;;;;;;;2.90;1.87;;;;;;;;;;5037860;28;20166;-76
2023/10/24 00:31:29;;;;;;;2.00;1.80;;;;;;;;;;5038228;28;20269;-76
2023/10/24 00:33:55;;;;;;;4.50;2.03;;;;;;;;;;5052900;28;20176;-76
2023/10/24 00:36:20;;;;;;;4.67;2.17;;;;;;;;;;5053979;28;20175;-76
2023/10/24 00:38:45;;;;;;;4.73;2.00;;;;;;;;;;5029696;28;20314;-76
2023/10/24 00:41:10;;;;;;;6.47;2.00;;;;;;;;;;5036568;28;20194;-76
2023/10/24 00:43:36;;;;;;;5.63;2.20;;;;;;;;;;5038773;28;20178;-76
2023/10/24 00:46:01;;;;;;;1.70;1.60;;;;;;;;;;5031343;28;20176;-76
2023/10/24 00:48:28;;;;;;;2.37;1.63;;;;;;;;;;5040452;28;20185;-76
2023/10/24 00:50:53;;;;;;;3.37;1.73;;;;;;;;;;5042431;28;20185;-76
2023/10/24 00:53:19;;;;;;;3.53;1.63;;;;;;;;;;5038037;28;20178;-76
2023/10/24 00:55:45;;;;;;;2.30;1.70;;;;;;;;;;5050331;28;20178;-76
2023/10/24 00:58:10;;;;;;;2.07;1.50;;;;;;;;;;5030000;28;20208;-76
2023/10/24 01:00:36;;;;;;;4.20;1.60;;;;;;;;;;5046169;28;20202;-76
2023/10/24 01:03:02;;;;;;;3.20;1.47;;;;;;;;;;5029014;28;20171;-77
2023/10/24 01:05:27;;;;;;;2.07;1.10;;;;;;;;;;5031945;28;20181;-76
2023/10/24 01:07:52;;;;;;;3.57;1.53;;;;;;;;;;5033385;28;20272;-76
2023/10/24 01:10:18;;;;;;;2.83;1.30;;;;;;;;;;5024735;28;20268;-76
2023/10/24 01:12:43;;;;;;;2.47;1.53;;;;;;;;;;5024890;28;20202;-76
2023/10/24 01:15:09;;;;;;;5.73;1.30;;;;;;;;;;5042572;28;20247;-76
2023/10/24 01:17:34;;;;;;;2.87;1.60;;;;;;;;;;5032947;28;20181;-77
2023/10/24 01:19:59;;;;;;;1.90;1.10;;;;;;;;;;5031938;28;20187;-76
2023/10/24 01:22:24;;;;;;;3.67;1.00;;;;;;;;;;5052451;28;20186;-76
2023/10/24 01:24:50;;;;;;;4.13;1.50;;;;;;;;;;5033447;28;20185;-77
2023/10/24 01:27:16;;;;;;;3.03;1.20;;;;;;;;;;5033563;28;20163;-77
2023/10/24 01:29:41;;;;;;;3.00;1.60;;;;;;;;;;5038606;28;20188;-77
2023/10/24 01:32:06;;;;;;;2.87;0.90;;;;;;;;;;5034962;28;20170;-77
2023/10/24 01:34:32;;;;;;;3.23;1.23;;;;;;;;;;5050931;28;20183;-77
2023/10/24 01:36:57;;;;;;;2.13;1.10;;;;;;;;;;5050634;28;20186;-76
2023/10/24 01:39:22;;;;;;;4.50;1.20;;;;;;;;;;5027366;28;20255;-77
2023/10/24 01:41:47;;;;;;;2.07;1.43;;;;;;;;;;5032202;28;20225;-76
2023/10/24 01:44:13;;;;;;;4.07;1.60;;;;;;;;;;5035090;28;20180;-77
2023/10/24 01:46:38;;;;;;;4.03;1.07;;;;;;;;;;5059277;28;20819;-77
2023/10/24 01:49:03;;;;;;;1.23;1.10;;;;;;;;;;5062074;28;20173;-76
2023/10/24 01:51:29;;;;;;;3.87;1.30;;;;;;;;;;5054861;28;20183;-76
2023/10/24 01:53:54;;;;;;;1.80;1.30;;;;;;;;;;5034095;28;20432;-77
2023/10/24 01:56:19;;;;;;;3.77;1.40;;;;;;;;;;5031691;28;20270;-76
2023/10/24 01:58:44;;;;;;;2.93;1.70;;;;;;;;;;5040569;28;20261;-76
2023/10/24 02:01:10;;;;;;;3.20;1.60;;;;;;;;;;5044026;28;20194;-77
2023/10/24 02:03:35;;;;;;;2.47;1.50;;;;;;;;;;5033962;28;20171;-76
2023/10/24 02:06:01;;;;;;;3.13;1.20;;;;;;;;;;5034757;28;20171;-76
2023/10/24 02:08:26;;;;;;;2.63;1.20;;;;;;;;;;5056300;28;20225;-77
2023/10/24 02:10:51;;;;;;;3.70;1.40;;;;;;;;;;5035137;28;20207;-77
2023/10/24 02:13:16;;;;;;;4.30;1.77;;;;;;;;;;5031971;28;20177;-77
2023/10/24 02:15:42;;;;;;;2.83;1.40;;;;;;;;;;5034024;28;20183;-77
2023/10/24 02:18:07;;;;;;;2.20;1.83;;;;;;;;;;5052727;28;20175;-77
2023/10/24 02:20:32;;;;;;;2.33;1.90;;;;;;;;;;5042641;28;20236;-76
2023/10/24 02:22:57;;;;;;;3.13;1.93;;;;;;;;;;5038029;28;20172;-77
2023/10/24 02:25:23;;;;;;;2.77;1.83;;;;;;;;;;5057065;28;20203;-77
2023/10/24 02:27:48;;;;;;;3.17;1.93;;;;;;;;;;5051639;28;20177;-77
2023/10/24 02:30:14;;;;;;;3.13;1.43;;;;;;;;;;5056571;28;20185;-77
2023/10/24 02:32:39;;;;;;;2.03;1.30;;;;;;;;;;5041885;28;20231;-77
2023/10/24 02:35:04;;;;;;;5.10;1.67;;;;;;;;;;5051833;28;20182;-77
2023/10/24 02:37:29;;;;;;;2.23;1.30;;;;;;;;;;5053619;28;20187;-77
2023/10/24 02:39:55;;;;;;;2.07;1.60;;;;;;;;;;5037347;28;20256;-77
2023/10/24 02:42:20;;;;;;;2.80;1.33;;;;;;;;;;5037246;28;20270;-76
2023/10/24 02:44:49;;;;;;;3.80;1.33;;;;;;;;;;5051501;28;20201;-77
2023/10/24 02:47:14;;;;;;;1.93;1.47;;;;;;;;;;5065074;28;20166;-77
2023/10/24 02:49:39;;;;;;;1.87;1.73;;;;;;;;;;5035161;28;20233;-77
2023/10/24 02:52:04;;;;;;;2.90;1.40;;;;;;;;;;5036600;28;20175;-77
2023/10/24 02:54:30;;;;;;;4.10;1.93;;;;;;;;;;5033684;28;20293;-77
2023/10/24 02:56:55;;;;;;;3.83;1.70;;;;;;;;;;5028869;28;20172;-77
2023/10/24 02:59:20;;;;;;;5.00;1.70;;;;;;;;;;5049851;28;20178;-77
2023/10/24 03:01:45;;;;;;;4.90;2.07;;;;;;;;;;5031741;28;20195;-77
2023/10/24 03:04:11;;;;;;;4.43;2.30;;;;;;;;;;5051466;28;20168;-77
2023/10/24 03:06:36;;;;;;;5.77;3.80;;;;;;;;;;5058898;28;20166;-77
2023/10/24 03:09:01;;;;;;;3.90;2.53;;;;;;;;;;5049615;28;20213;-77
2023/10/24 03:11:26;;;;;;;2.63;1.30;;;;;;;;;;5038503;28;20185;-77
2023/10/24 03:13:52;;;;;;;2.80;1.50;;;;;;;;;;5037632;28;20229;-77
2023/10/24 03:16:17;;;;;;;2.67;1.47;;;;;;;;;;5039708;28;20558;-77
2023/10/24 03:18:43;;;;;;;3.13;1.30;;;;;;;;;;5034349;28;20890;-77
2023/10/24 03:21:08;;;;;;;1.20;1.10;;;;;;;;;;5052239;28;20241;-77
2023/10/24 03:23:33;;;;;;;1.77;1.50;;;;;;;;;;5033409;28;20180;-77
2023/10/24 03:25:59;;;;;;;2.23;1.37;;;;;;;;;;5054888;28;20204;-77
2023/10/24 03:28:24;;;;;;;2.50;1.40;;;;;;;;;;5030084;28;20223;-77
2023/10/24 03:30:59;;;;;;;1.50;1.27;;;;;;;;;;5032630;28;20187;-77
2023/10/24 03:33:24;;;;;;;2.97;1.20;;;;;;;;;;5031724;28;20174;-77
2023/10/24 03:35:50;;;;;;;2.40;1.20;;;;;;;;;;5054895;28;20174;-77
2023/10/24 03:38:15;;;;;;;2.70;1.77;;;;;;;;;;5038658;28;20632;-77
2023/10/24 03:40:41;;;;;;;6.47;1.40;;;;;;;;;;5050171;28;20198;-77
2023/10/24 03:43:06;;;;;;;4.07;1.43;;;;;;;;;;5050071;28;20178;-77
2023/10/24 03:45:31;;;;;;;2.50;1.27;;;;;;;;;;5050015;28;20186;-77
2023/10/24 03:47:56;;;;;;;2.83;1.57;;;;;;;;;;5048575;28;20179;-77
2023/10/24 03:50:21;;;;;;;3.67;1.80;;;;;;;;;;5029658;28;20178;-77
2023/10/24 03:52:48;;;;;;;1.60;1.10;;;;;;;;;;5030786;28;20190;-77
2023/10/24 03:55:13;;;;;;;3.37;1.60;;;;;;;;;;5038832;28;20171;-77
2023/10/24 03:57:39;;;;;;;0.97;0.90;;;;;;;;;;5047479;28;20181;-77
2023/10/24 04:00:08;;;;;;;3.43;1.37;;;;;;;;;;5033542;28;20209;-77
2023/10/24 04:02:33;;;;;;;3.97;2.27;;;;;;;;;;5032192;28;20174;-77
2023/10/24 04:04:58;;;;;;;1.50;1.30;;;;;;;;;;5045984;28;20166;-77
2023/10/24 04:07:24;;;;;;;1.73;0.90;;;;;;;;;;5035043;28;20162;-77
2023/10/24 04:09:49;;;;;;;2.60;1.00;;;;;;;;;;5031473;28;20183;-77
2023/10/24 04:12:14;;;;;;;3.07;1.20;;;;;;;;;;5029735;28;20263;-77
2023/10/24 04:14:39;;;;;;;2.33;1.27;;;;;;;;;;5028729;28;20183;-77
2023/10/24 04:17:05;;;;;;;1.50;1.07;;;;;;;;;;5028873;28;20181;-77
2023/10/24 04:19:30;;;;;;;2.03;0.87;;;;;;;;;;5021797;28;20501;-77
2023/10/24 04:21:55;;;;;;;1.20;1.10;;;;;;;;;;5050048;28;20218;-77
2023/10/24 04:24:21;;;;;;;3.67;1.13;;;;;;;;;;5032864;28;20171;-76
2023/10/24 04:26:46;;;;;;;1.00;1.00;;;;;;;;;;5048463;28;20179;-77
2023/10/24 04:29:11;;;;;;;1.30;1.20;;;;;;;;;;5028810;28;20181;-77
2023/10/24 04:31:36;;;;;;;1.07;0.97;;;;;;;;;;5043818;28;20171;-77
2023/10/24 04:34:03;;;;;;;2.97;0.90;;;;;;;;;;5030174;28;20175;-77
2023/10/24 04:36:28;;;;;;;2.50;1.73;;;;;;;;;;5046490;28;20187;-77
2023/10/24 04:38:53;;;;;;;1.37;1.27;;;;;;;;;;5034309;28;20353;-77
2023/10/24 04:41:18;;;;;;;1.53;1.20;;;;;;;;;;5051165;28;20202;-77
2023/10/24 04:43:43;;;;;;;1.60;1.33;;;;;;;;;;5033041;28;20180;-77
2023/10/24 04:46:09;;;;;;;2.07;1.40;;;;;;;;;;5030713;28;20221;-77
2023/10/24 04:48:34;;;;;;;2.33;1.60;;;;;;;;;;5031368;28;20175;-77
2023/10/24 04:50:59;;;;;;;2.23;1.60;;;;;;;;;;5051870;28;20270;-76
2023/10/24 04:53:25;;;;;;;1.50;1.40;;;;;;;;;;5035596;28;20179;-77
2023/10/24 04:55:50;;;;;;;1.60;1.50;;;;;;;;;;5035504;28;20181;-77
2023/10/24 04:58:15;;;;;;;1.97;1.10;;;;;;;;;;5039903;28;20266;-77
2023/10/24 05:00:40;;;;;;;1.50;1.10;;;;;;;;;;5027477;28;20307;-77
2023/10/24 05:03:06;;;;;;;1.47;1.37;;;;;;;;;;5036545;28;20166;-77
2023/10/24 05:05:31;;;;;;;1.30;1.20;;;;;;;;;;5029668;28;20269;-77
2023/10/24 05:07:57;;;;;;;3.17;1.67;;;;;;;;;;5036747;28;20181;-74
2023/10/24 05:10:22;;;;;;;1.80;1.30;;;;;;;;;;5026634;28;20171;-74
2023/10/24 05:12:47;;;;;;;1.40;1.10;;;;;;;;;;5033645;28;20237;-74
2023/10/24 05:15:12;;;;;;;1.07;0.97;;;;;;;;;;5052369;28;20453;-74
2023/10/24 05:17:38;;;;;;;1.10;1.00;;;;;;;;;;5048778;28;20175;-74
2023/10/24 05:20:03;;;;;;;2.93;1.40;;;;;;;;;;5033650;28;20194;-74
2023/10/24 05:22:29;;;;;;;3.97;3.07;;;;;;;;;;5055778;28;20186;-74
2023/10/24 05:24:54;;;;;;;2.17;1.87;;;;;;;;;;5035969;28;20173;-74
2023/10/24 05:27:19;;;;;;;2.10;1.77;;;;;;;;;;5053629;28;20175;-74
2023/10/24 05:29:44;;;;;;;1.50;1.40;;;;;;;;;;5051136;28;20193;-74
2023/10/24 05:32:10;;;;;;;2.93;2.63;;;;;;;;;;5033605;28;20267;-74
2023/10/24 05:34:35;;;;;;;2.20;1.83;;;;;;;;;;5036938;28;20166;-74
2023/10/24 05:37:00;;;;;;;3.47;1.63;;;;;;;;;;5047808;28;20483;-74
2023/10/24 05:39:29;;;;;;;5.20;4.70;;;;;;;;;;5031687;28;20222;-74
2023/10/24 05:41:54;;;;;;;2.60;2.40;;;;;;;;;;5047478;28;20201;-74
2023/10/24 05:44:19;;;;;;;2.23;2.03;;;;;;;;;;5052561;28;20173;-74
2023/10/24 05:46:45;;;;;;;2.77;2.57;;;;;;;;;;5031736;28;21100;-74
2023/10/24 05:49:10;;;;;;;2.93;2.50;;;;;;;;;;5053870;28;20175;-74
2023/10/24 05:51:35;;;;;;;3.30;2.30;;;;;;;;;;5044681;28;20243;-74
2023/10/24 05:54:00;;;;;;;2.47;1.80;;;;;;;;;;5030992;28;20272;-74
2023/10/24 05:56:26;;;;;;;2.73;1.53;;;;;;;;;;5030040;28;20481;-74
2023/10/24 05:58:51;;;;;;;2.10;1.40;;;;;;;;;;5033024;28;20197;-74
2023/10/24 06:01:16;;;;;;;4.57;2.40;;;;;;;;;;5031081;28;20386;-74
2023/10/24 06:03:41;;;;;;;1.90;1.60;;;;;;;;;;5049473;28;20162;-74
2023/10/24 06:06:07;;;;;;;2.57;1.50;;;;;;;;;;5033138;28;20176;-74
2023/10/24 06:08:32;;;;;;;1.97;1.77;;;;;;;;;;5045900;28;20217;-74
2023/10/24 06:10:59;;;;;;;2.50;1.40;;;;;;;;;;5050215;28;20199;-74
2023/10/24 06:13:24;;;;;;;2.67;1.70;;;;;;;;;;5047960;28;20173;-74
2023/10/24 06:15:49;;;;;;;3.10;1.50;;;;;;;;;;5030202;28;20186;-74
2023/10/24 06:18:14;;;;;;;2.20;1.63;;;;;;;;;;5027208;28;20186;-74
2023/10/24 06:20:40;;;;;;;4.40;2.10;;;;;;;;;;5053240;28;20198;-74
2023/10/24 06:23:06;;;;;;;3.10;1.77;;;;;;;;;;5051329;28;20170;-74
2023/10/24 06:25:40;;;;;;;3.60;3.07;;;;;;;;;;5051080;28;20262;-74
2023/10/24 06:28:06;;;;;;;3.17;2.27;;;;;;;;;;5033023;28;20177;-74
2023/10/24 06:30:32;;;;;;;3.20;2.57;;;;;;;;;;5032895;28;20185;-74
2023/10/24 06:32:57;;;;;;;3.63;2.27;;;;;;;;;;5045623;28;20193;-74
2023/10/24 06:35:22;;;;;;;2.50;1.70;;;;;;;;;;5037920;28;20188;-75
2023/10/24 06:37:48;;;;;;;2.37;1.97;;;;;;;;;;5035207;28;20178;-74
2023/10/24 06:40:13;;;;;;;3.60;2.10;;;;;;;;;;5028633;28;20232;-75
2023/10/24 06:42:38;;;;;;;4.77;2.20;;;;;;;;;;5037984;28;20182;-75
2023/10/24 06:45:04;;;;;;;2.13;1.43;;;;;;;;;;5036407;28;20181;-74
2023/10/24 06:47:29;;;;;;;3.57;1.77;;;;;;;;;;5037510;28;20209;-74
2023/10/24 06:49:54;;;;;;;3.80;1.73;;;;;;;;;;5031209;28;20185;-75
2023/10/24 06:52:19;;;;;;;1.93;1.70;;;;;;;;;;5049308;28;20182;-75
2023/10/24 06:54:44;;;;;;;2.37;1.93;;;;;;;;;;5034004;28;20167;-75
2023/10/24 06:57:10;;;;;;;4.63;1.87;;;;;;;;;;5030472;28;20175;-75
2023/10/24 06:59:35;;;;;;;2.67;1.40;;;;;;;;;;5033632;28;20197;-74
2023/10/24 07:02:00;;;;;;;2.30;1.80;;;;;;;;;;5050406;28;20194;-75
2023/10/24 07:04:25;;;;;;;4.27;1.43;;;;;;;;;;5050868;28;20193;-75
2023/10/24 07:06:51;;;;;;;2.77;1.57;;;;;;;;;;5052342;28;20245;-75
2023/10/24 07:09:16;;;;;;;3.60;1.73;;;;;;;;;;5052378;28;20184;-76
2023/10/24 07:11:42;;;;;;;1.77;1.57;;;;;;;;;;5050721;28;20273;-74
2023/10/24 07:14:07;;;;;;;3.77;1.93;;;;;;;;;;5053859;28;20177;-75
2023/10/24 07:16:33;;;;;;;2.13;1.30;;;;;;;;;;5049309;28;20178;-74
2023/10/24 07:18:58;;;;;;;3.33;1.63;;;;;;;;;;5049275;28;20249;-75
2023/10/24 07:21:23;;;;;;;2.57;1.57;;;;;;;;;;5054062;28;20186;-75
2023/10/24 07:23:50;;;;;;;1.93;1.50;;;;;;;;;;5031805;28;20185;-75
2023/10/24 07:26:15;;;;;;;1.60;1.50;;;;;;;;;;5028586;28;20174;-74
2023/10/24 07:28:40;;;;;;;2.60;1.70;;;;;;;;;;5041692;28;20267;-74
2023/10/24 07:31:06;;;;;;;42.83;18.30;;;;;;;;;;5057757;28;20178;-75
2023/10/24 07:33:31;;;;;;;24.10;10.13;;;;;;;;;;5032042;28;20174;-74
2023/10/24 07:36:02;;;;;;;19.20;10.90;;;;;;;;;;5054275;28;20261;-74
2023/10/24 07:38:28;;;;;;;14.33;8.00;;;;;;;;;;5027235;28;20257;-74
2023/10/24 07:40:53;;;;;;;8.80;5.47;;;;;;;;;;5047743;28;20233;-75
2023/10/24 07:43:18;;;;;;;7.00;4.53;;;;;;;;;;5032859;28;20186;-74
2023/10/24 07:45:47;;;;;;;4.07;2.87;;;;;;;;;;5035930;28;20180;-74
2023/10/24 07:48:13;;;;;;;4.20;2.80;;;;;;;;;;5032395;28;20266;-74
2023/10/24 07:50:38;;;;;;;3.67;2.20;;;;;;;;;;5050961;28;20382;-74
2023/10/24 07:53:04;;;;;;;2.20;2.00;;;;;;;;;;5032473;28;20202;-75
2023/10/24 07:55:29;;;;;;;1.87;1.73;;;;;;;;;;5032556;28;20183;-74
2023/10/24 07:57:54;;;;;;;2.87;2.67;;;;;;;;;;5048844;28;20235;-74
2023/10/24 08:00:19;;;;;;;2.70;2.03;;;;;;;;;;5053266;28;20204;-75
2023/10/24 08:02:45;;;;;;;4.10;3.40;;;;;;;;;;5036036;28;20182;-74
2023/10/24 08:05:10;;;;;;;3.33;3.00;;;;;;;;;;5033725;28;20189;-74
2023/10/24 08:07:37;;;;;;;3.50;2.53;;;;;;;;;;5029319;28;20185;-74
2023/10/24 08:10:03;;;;;;;3.27;1.77;;;;;;;;;;5054117;28;20212;-74
2023/10/24 08:12:28;;;;;;;2.63;1.83;;;;;;;;;;5048713;28;20177;-74
2023/10/24 08:14:53;;;;;;;3.90;1.70;;;;;;;;;;5045684;28;20199;-74
2023/10/24 08:17:18;;;;;;;2.50;1.77;;;;;;;;;;5042233;28;20178;-74
2023/10/24 08:19:44;;;;;;;1.90;1.70;;;;;;;;;;5030326;28;20182;-74
2023/10/24 08:22:09;;;;;;;3.90;2.17;;;;;;;;;;5029508;28;20190;-74
2023/10/24 08:24:34;;;;;;;5.50;2.07;;;;;;;;;;5031065;28;20171;-74
2023/10/24 08:26:59;;;;;;;2.20;1.80;;;;;;;;;;5051455;28;20172;-74
2023/10/24 08:29:25;;;;;;;2.30;1.77;;;;;;;;;;5036920;28;20177;-74
2023/10/24 08:34:17;;;;;;;3.33;1.90;;;;;;;;;;5007813;28;20235;-72
2023/10/24 08:36:43;;;;;;;2.83;2.10;;;;;;;;;;4996812;28;20221;-72
2023/10/24 08:39:09;;;;;;;1.90;1.70;;;;;;;;;;4986743;28;20172;-72
2023/10/24 08:41:34;;;;;;;2.20;1.90;;;;;;;;;;4992902;28;20196;-72
2023/10/24 08:44:00;;;;;;;3.13;2.67;;;;;;;;;;5009093;28;20160;-72
2023/10/24 08:46:25;;;;;;;2.23;1.60;;;;;;;;;;4990710;28;20180;-72
2023/10/24 08:48:51;;;;;;;3.83;1.80;;;;;;;;;;5008680;28;20207;-73
2023/10/24 08:51:16;;;;;;;2.00;1.90;;;;;;;;;;4999030;28;20182;-72
2023/10/24 08:53:41;;;;;;;2.17;1.80;;;;;;;;;;5007971;28;20286;-72
2023/10/24 08:56:09;;;;;;;2.00;1.50;;;;;;;;;;5020055;28;20269;-72
2023/10/24 08:58:37;;;;;;;3.33;2.43;;;;;;;;;;5000455;28;20202;-72
2023/10/24 09:01:02;;;;;;;2.03;1.90;;;;;;;;;;5008987;28;20196;-72
2023/10/24 09:03:28;;;;;;;7.63;3.10;;;;;;;;;;5000387;28;20255;-72
2023/10/24 09:05:55;;;;;;;4.60;2.20;;;;;;;;;;5015417;28;20184;-72
2023/10/24 09:08:20;;;;;;;3.70;1.93;;;;;;;;;;5012731;28;20205;-72
2023/10/24 09:10:45;;;;;;;3.10;1.77;;;;;;;;;;5020074;28;20214;-72
2023/10/24 09:13:11;;;;;;;4.13;2.00;;;;;;;;;;5019776;28;20191;-72
2023/10/24 09:15:37;;;;;;;2.50;1.60;;;;;;;;;;5008401;28;20251;-73
2023/10/24 09:18:05;;;;;;;1.60;1.37;;;;;;;;;;4989756;28;20190;-72
2023/10/24 09:20:34;;;;;;;3.17;1.93;;;;;;;;;;5015915;28;20192;-72
2023/10/24 09:23:06;;;;;;;4.63;2.33;;;;;;;;;;5010845;28;20177;-72
2023/10/24 09:25:32;;;;;;;5.13;2.50;;;;;;;;;;5009641;28;20181;-72
2023/10/24 09:28:16;;;;;;;3.07;2.40;;;;;;;;;;5001819;28;20179;-71
2023/10/24 09:30:41;;;;;;;2.47;1.90;;;;;;;;;;5003694;28;20183;-71
2023/10/24 09:33:07;;;;;;;8.47;3.40;;;;;;;;;;4989380;28;20235;-71
2023/10/24 09:35:32;;;;;;;3.60;2.27;;;;;;;;;;5001450;28;20202;-71
2023/10/24 09:37:57;;;;;;;2.43;2.20;;;;;;;;;;5012968;28;20178;-71
2023/10/24 09:40:32;;;;;;;2.00;1.90;;;;;;;;;;5005771;28;20287;-71
2023/10/24 09:42:57;;;;;;;2.23;1.93;;;;;;;;;;4999223;28;20210;-71
2023/10/24 09:45:23;;;;;;;2.10;1.70;;;;;;;;;;5004472;28;20176;-71
2023/10/24 09:47:48;;;;;;;1.50;1.40;;;;;;;;;;5008067;28;20169;-71
2023/10/24 09:50:14;;;;;;;1.57;1.47;;;;;;;;;;4986453;28;20179;-71
2023/10/24 09:52:40;;;;;;;1.80;1.70;;;;;;;;;;5006307;28;20235;-71
2023/10/24 09:55:05;;;;;;;2.17;1.97;;;;;;;;;;5002860;28;20185;-71
2023/10/24 09:57:31;;;;;;;1.70;1.60;;;;;;;;;;5004804;28;20185;-71
2023/10/24 09:59:58;;;;;;;2.93;1.87;;;;;;;;;;4996346;28;20207;-71
2023/10/24 10:02:24;;;;;;;1.90;1.53;;;;;;;;;;4993024;28;20180;-71
2023/10/24 10:04:50;;;;;;;2.87;1.70;;;;;;;;;;5005400;28;20190;-71
2023/10/24 10:07:16;;;;;;;1.53;1.40;;;;;;;;;;5008271;28;20196;-68
2023/10/24 10:09:46;;;;;;;1.90;1.80;;;;;;;;;;4995156;28;20186;-78
2023/10/24 10:12:12;;;;;;;6.53;3.77;;;;;;;;;;4990801;28;20200;-78
2023/10/24 10:14:43;;;;;;;2.53;2.33;;;;;;;;;;4993062;28;20183;-77
2023/10/24 10:17:08;;;;;;;4.10;2.23;;;;;;;;;;4988325;28;20181;-78
2023/10/24 10:19:36;;;;;;;2.77;2.53;;;;;;;;;;5014205;28;20185;-78
2023/10/24 10:22:11;;;;;;;2.37;2.17;;;;;;;;;;5011430;28;20196;-78
2023/10/24 10:24:36;;;;;;;3.40;2.57;;;;;;;;;;4985129;28;20178;-77
2023/10/24 10:27:01;;;;;;;2.37;2.20;;;;;;;;;;5000634;28;20266;-78
2023/10/24 10:29:33;;;;;;;2.97;2.27;;;;;;;;;;4991027;28;20184;-77
2023/10/24 10:32:17;;;;;;;2.60;2.40;;;;;;;;;;4996403;28;20196;-78
2023/10/24 10:34:43;;;;;;;2.57;2.37;;;;;;;;;;4994214;28;20270;-78
2023/10/24 10:37:08;;;;;;;4.43;4.03;;;;;;;;;;4992644;28;20180;-77
2023/10/24 10:39:34;;;;;;;2.67;2.30;;;;;;;;;;4995367;28;20190;-77
2023/10/24 10:41:59;;;;;;;3.40;3.10;;;;;;;;;;5016588;28;20211;-77
2023/10/24 10:44:35;;;;;;;2.90;2.60;;;;;;;;;;4997572;28;20211;-78
2023/10/24 10:47:01;;;;;;;5.23;4.73;;;;;;;;;;4998522;28;20176;-78
2023/10/24 10:49:36;;;;;;;3.80;3.50;;;;;;;;;;5005201;28;20229;-78
2023/10/24 10:52:02;;;;;;;4.23;3.83;;;;;;;;;;4995857;28;20181;-78
2023/10/24 10:54:31;;;;;;;3.23;3.03;;;;;;;;;;4997838;28;20192;-77
2023/10/24 10:57:01;;;;;;;4.30;3.90;;;;;;;;;;4993084;28;20179;-78
2023/10/24 10:59:45;;;;;;;2.70;2.50;;;;;;;;;;4988262;28;20189;-77
2023/10/24 11:02:28;;;;;;;3.63;3.33;;;;;;;;;;5009074;28;20282;-77
2023/10/24 11:04:54;;;;;;;5.10;2.90;;;;;;;;;;4993407;28;20251;-77
2023/10/24 11:07:39;;;;;;;5.43;4.50;;;;;;;;;;4991097;28;20268;-78
2023/10/24 11:10:12;;;;;;;7.80;7.20;;;;;;;;;;4989882;28;20192;-78
2023/10/24 11:12:46;;;;;;;3.13;2.93;;;;;;;;;;5011536;28;20194;-77
2023/10/24 11:15:13;;;;;;;9.27;8.53;;;;;;;;;;4991451;28;20195;-78
2023/10/24 11:17:39;;;;;;;1.50;1.37;;;;;;;;;;4994376;28;20181;-78
2023/10/24 11:20:05;;;;;;;8.30;7.70;;;;;;;;;;4993822;28;20183;-78
2023/10/24 11:22:31;;;;;;;2.70;1.90;;;;;;;;;;4993741;28;20178;-77
2023/10/24 11:24:56;;;;;;;1.30;1.20;;;;;;;;;;4992076;28;20184;-78
2023/10/24 11:27:22;;;;;;;1.60;1.50;;;;;;;;;;4996570;28;20185;-77
2023/10/24 11:29:47;;;;;;;0.83;0.83;;;;;;;;;;4996120;28;20216;-77
2023/10/24 11:32:13;;;;;;;0.60;0.60;;;;;;;;;;5001412;28;20226;-77
2023/10/24 11:34:38;;;;;;;1.47;1.00;;;;;;;;;;4997397;28;20216;-77
2023/10/24 11:37:03;;;;;;;6.90;5.73;;;;;;;;;;4994015;28;20271;-78
2023/10/24 11:39:30;;;;;;;11.20;8.17;;;;;;;;;;4994881;28;20280;-78
2023/10/24 11:41:55;;;;;;;11.10;9.00;;;;;;;;;;4989684;28;20211;-77
2023/10/24 11:44:21;;;;;;;1.13;1.07;;;;;;;;;;4996379;28;20243;-78
2023/10/24 11:46:46;;;;;;;1.40;1.17;;;;;;;;;;5008144;28;20172;-78
2023/10/24 11:49:11;;;;;;;10.60;9.47;;;;;;;;;;5008223;28;20186;-77
2023/10/24 11:51:37;;;;;;;1.00;1.00;;;;;;;;;;4994100;28;20181;-78
2023/10/24 11:54:06;;;;;;;2.67;2.37;;;;;;;;;;4994585;28;20185;-78
2023/10/24 11:56:31;;;;;;;2.13;1.20;;;;;;;;;;5009004;28;20272;-78
2023/10/24 11:58:57;;;;;;;2.03;1.63;;;;;;;;;;5006312;28;20260;-78
2023/10/24 12:01:28;;;;;;;1.40;1.07;;;;;;;;;;4994855;28;20202;-78
2023/10/24 12:03:56;;;;;;;0.80;0.80;;;;;;;;;;4991228;28;20180;-78
2023/10/24 12:06:21;;;;;;;0.57;0.57;;;;;;;;;;4998140;28;20176;-78
2023/10/24 12:08:49;;;;;;;1.10;0.77;;;;;;;;;;5011522;28;20242;-78
2023/10/24 12:11:15;;;;;;;1.77;1.33;;;;;;;;;;5005590;28;20181;-78
2023/10/24 12:13:40;;;;;;;5.87;3.50;;;;;;;;;;5004191;28;20191;-78
2023/10/24 12:16:06;;;;;;;3.73;2.77;;;;;;;;;;4991877;28;20181;-78
2023/10/24 12:18:32;;;;;;;0.90;0.90;;;;;;;;;;4994159;28;20181;-79
2023/10/24 12:20:57;;;;;;;0.70;0.70;;;;;;;;;;5003087;28;20295;-78
2023/10/24 12:23:23;;;;;;;1.00;1.00;;;;;;;;;;4996597;28;20640;-78
2023/10/24 12:25:49;;;;;;;2.40;1.43;;;;;;;;;;4992654;28;20184;-78
2023/10/24 12:28:15;;;;;;;3.47;1.30;;;;;;;;;;5003130;28;20522;-78
2023/10/24 12:30:40;;;;;;;1.27;0.90;;;;;;;;;;5014370;28;20193;-78
2023/10/24 12:33:05;;;;;;;1.37;1.20;;;;;;;;;;4995130;28;20273;-78
2023/10/24 12:35:30;;;;;;;1.93;0.90;;;;;;;;;;4998684;28;20265;-78
2023/10/24 12:37:56;;;;;;;0.73;0.73;;;;;;;;;;4992254;28;20192;-78
2023/10/24 12:40:21;;;;;;;0.80;0.80;;;;;;;;;;4989778;28;20280;-81
2023/10/24 12:42:46;;;;;;;0.80;0.80;;;;;;;;;;4988358;28;20196;-81
2023/10/24 12:45:11;;;;;;;1.17;1.07;;;;;;;;;;5005992;28;20170;-81
2023/10/24 12:47:37;;;;;;;1.10;1.10;;;;;;;;;;4988092;28;20192;-81
2023/10/24 12:50:03;;;;;;;2.20;2.00;;;;;;;;;;4999611;28;20187;-81
2023/10/24 12:52:29;;;;;;;1.67;1.37;;;;;;;;;;4996576;28;20204;-82
2023/10/24 12:54:54;;;;;;;2.10;1.90;;;;;;;;;;5008492;28;20180;-82
2023/10/24 12:57:20;;;;;;;1.70;1.27;;;;;;;;;;4990947;28;20185;-81
2023/10/24 12:59:45;;;;;;;1.20;1.10;;;;;;;;;;4991456;28;20177;-81
2023/10/24 13:02:11;;;;;;;1.60;1.50;;;;;;;;;;5010352;28;20200;-82
2023/10/24 13:04:36;;;;;;;1.33;1.23;;;;;;;;;;4995590;28;20202;-81
2023/10/24 13:07:04;;;;;;;1.27;1.17;;;;;;;;;;4992176;28;20174;-81
2023/10/24 13:09:30;;;;;;;1.23;1.10;;;;;;;;;;4996287;28;20181;-82
2023/10/24 13:11:55;;;;;;;1.00;1.00;;;;;;;;;;5014953;28;20224;-81
2023/10/24 13:14:21;;;;;;;1.80;1.30;;;;;;;;;;4994572;28;20222;-81
2023/10/24 13:16:46;;;;;;;2.30;2.10;;;;;;;;;;4990861;28;20181;-81
2023/10/24 13:19:11;;;;;;;1.60;1.50;;;;;;;;;;5014619;28;20171;-82
2023/10/24 13:21:37;;;;;;;1.53;1.33;;;;;;;;;;4994603;28;20230;-83
2023/10/24 13:24:03;;;;;;;3.37;2.40;;;;;;;;;;5014899;28;20233;-82
2023/10/24 13:26:28;;;;;;;4.33;3.10;;;;;;;;;;4994585;28;20198;-83
2023/10/24 13:28:54;;;;;;;3.00;2.63;;;;;;;;;;5001301;28;20285;-83
2023/10/24 13:31:19;;;;;;;12.13;8.13;;;;;;;;;;4993573;28;20185;-82
2023/10/24 13:33:44;;;;;;;11.03;7.20;;;;;;;;;;4988010;28;20229;-82
2023/10/24 13:36:13;;;;;;;5.33;4.00;;;;;;;;;;5001463;28;20188;-82
2023/10/24 13:38:38;;;;;;;3.37;1.67;;;;;;;;;;4996414;28;20189;-82
2023/10/24 13:41:03;;;;;;;2.30;1.90;;;;;;;;;;5004072;28;20200;-82
2023/10/24 13:43:29;;;;;;;1.93;1.80;;;;;;;;;;4999098;28;20208;-82
2023/10/24 13:45:54;;;;;;;1.20;1.10;;;;;;;;;;4999772;28;20186;-82
2023/10/24 13:48:19;;;;;;;1.37;1.20;;;;;;;;;;4994873;28;20181;-82
2023/10/24 13:50:44;;;;;;;1.43;1.33;;;;;;;;;;5003373;28;20182;-82
2023/10/24 13:53:10;;;;;;;1.77;1.10;;;;;;;;;;4995967;28;20212;-82
2023/10/24 13:55:36;;;;;;;1.17;1.07;;;;;;;;;;5004333;28;20196;-81
2023/10/24 13:58:02;;;;;;;0.90;0.90;;;;;;;;;;4996921;28;20185;-82
2023/10/24 14:00:27;;;;;;;1.30;1.23;;;;;;;;;;4996587;28;20236;-81
2023/10/24 14:02:52;;;;;;;1.37;1.20;;;;;;;;;;4989698;28;20205;-82
2023/10/24 14:05:17;;;;;;;0.90;0.90;;;;;;;;;;4989996;28;20173;-81
2023/10/24 14:07:43;;;;;;;1.50;1.40;;;;;;;;;;4995402;28;20237;-81
2023/10/24 14:10:08;;;;;;;2.10;1.80;;;;;;;;;;5015651;28;20169;-81
2023/10/24 14:12:34;;;;;;;1.00;0.97;;;;;;;;;;5006926;28;20175;-81
2023/10/24 14:14:59;;;;;;;0.93;0.93;;;;;;;;;;4985747;28;20187;-81
2023/10/24 14:17:24;;;;;;;1.07;1.07;;;;;;;;;;5008175;28;20171;-81
2023/10/24 14:19:51;;;;;;;1.17;1.07;;;;;;;;;;4991074;28;20181;-81
2023/10/24 14:22:16;;;;;;;1.13;1.07;;;;;;;;;;4994028;28;20201;-81
2023/10/24 14:24:42;;;;;;;3.00;2.10;;;;;;;;;;4995479;28;20379;-81
2023/10/24 14:27:07;;;;;;;1.23;1.20;;;;;;;;;;4993581;28;20212;-80
2023/10/24 14:29:33;;;;;;;1.13;1.13;;;;;;;;;;5007765;28;20205;-80
2023/10/24 14:31:58;;;;;;;1.70;1.37;;;;;;;;;;4991141;28;20202;-80
2023/10/24 14:34:23;;;;;;;1.47;1.37;;;;;;;;;;5006014;28;20213;-80
2023/10/24 14:36:48;;;;;;;2.37;1.40;;;;;;;;;;5006065;28;20198;-80